createdAt,value
2019-01-21T00:00:32.153Z,29.07
2019-01-21T00:03:01.215Z,27.73
2019-01-21T00:05:29.619Z,28.40
2019-01-21T00:07:58.125Z,29.37
2019-01-21T00:10:26.529Z,29.73
2019-01-21T00:12:54.938Z,31.77
2019-01-21T00:15:23.377Z,28.83
2019-01-21T00:17:51.781Z,27.47
2019-01-21T00:20:20.199Z,28.40
2019-01-21T00:22:48.645Z,29.63
2019-01-21T00:25:17.053Z,31.30
2019-01-21T00:27:45.537Z,29.33
2019-01-21T00:30:14.065Z,29.27
2019-01-21T00:32:42.470Z,25.97
2019-01-21T00:35:11.223Z,25.67
2019-01-21T00:37:39.737Z,26.83
2019-01-21T00:40:16.594Z,26.97
2019-01-21T00:42:44.997Z,28.47
2019-01-21T00:45:13.951Z,28.77
2019-01-21T00:47:42.470Z,28.10
2019-01-21T00:50:12.430Z,26.80
2019-01-21T00:52:40.827Z,26.50
2019-01-21T00:55:11.423Z,28.83
2019-01-21T00:57:39.830Z,30.17
2019-01-21T01:00:13.822Z,29.17
2019-01-21T01:02:42.713Z,29.90
2019-01-21T01:05:11.662Z,28.67
2019-01-21T01:07:40.069Z,28.67
2019-01-21T01:10:11.670Z,30.37
2019-01-21T01:12:40.148Z,26.47
2019-01-21T01:15:10.994Z,27.97
2019-01-21T01:17:39.687Z,28.60
2019-01-21T01:20:14.189Z,27.03
2019-01-21T01:22:42.668Z,28.20
2019-01-21T01:25:11.221Z,25.83
2019-01-21T01:27:39.630Z,27.13
2019-01-21T01:30:11.246Z,25.57
2019-01-21T01:32:39.682Z,27.23
2019-01-21T01:35:09.639Z,29.07
2019-01-21T01:37:38.055Z,26.67
2019-01-21T01:40:10.826Z,29.53
2019-01-21T01:42:39.240Z,26.10
2019-01-21T01:45:10.999Z,25.57
2019-01-21T01:47:44.652Z,27.03
2019-01-21T01:50:09.848Z,30.00
2019-01-21T01:52:38.253Z,27.73
2019-01-21T01:55:09.862Z,27.25
2019-01-21T01:57:38.419Z,28.70
2019-01-21T02:00:10.822Z,25.88
2019-01-21T02:02:39.272Z,27.73
2019-01-21T02:05:07.831Z,28.17
2019-01-21T02:07:36.235Z,26.50
2019-01-21T02:10:07.987Z,29.17
2019-01-21T02:12:55.750Z,28.87
2019-01-21T02:15:24.196Z,31.57
2019-01-21T02:17:52.750Z,28.53
2019-01-21T02:20:21.334Z,29.87
2019-01-21T02:22:57.605Z,28.03
2019-01-21T02:25:29.194Z,30.93
2019-01-21T02:28:17.295Z,27.33
2019-01-21T02:31:14.430Z,30.80
2019-01-21T02:34:11.901Z,26.87
2019-01-21T02:36:59.987Z,27.37
2019-01-21T02:39:31.541Z,27.17
2019-01-21T02:42:03.029Z,27.60
2019-01-21T02:44:49.586Z,28.33
2019-01-21T02:47:21.315Z,27.83
2019-01-21T02:49:55.385Z,31.80
2019-01-21T02:52:33.223Z,28.00
2019-01-21T02:55:16.295Z,27.07
2019-01-21T02:58:07.630Z,28.57
2019-01-21T03:00:44.627Z,29.07
2019-01-21T03:03:32.887Z,30.67
2019-01-21T03:06:07.643Z,26.70
2019-01-21T03:09:14.085Z,26.90
2019-01-21T03:11:48.660Z,29.00
2019-01-21T03:14:35.071Z,28.97
2019-01-21T03:17:12.262Z,29.23
2019-01-21T03:19:55.804Z,27.07
2019-01-21T03:22:51.929Z,28.53
2019-01-21T03:25:41.892Z,27.97
2019-01-21T03:28:25.515Z,29.00
2019-01-21T03:31:26.600Z,31.17
2019-01-21T03:34:15.328Z,26.87
2019-01-21T03:37:17.918Z,31.57
2019-01-21T03:40:01.179Z,29.67
2019-01-21T03:42:41.746Z,30.70
2019-01-21T03:45:45.155Z,28.93
2019-01-21T03:48:22.449Z,28.70
2019-01-21T03:51:15.110Z,26.50
2019-01-21T03:53:49.783Z,32.47
2019-01-21T03:56:21.734Z,31.30
2019-01-21T03:58:58.990Z,30.43
2019-01-21T04:01:39.602Z,28.97
2019-01-21T04:04:19.898Z,31.00
2019-01-21T04:06:51.875Z,28.33
2019-01-21T04:09:26.529Z,26.10
2019-01-21T04:12:19.237Z,28.37
2019-01-21T04:15:11.878Z,26.23
2019-01-21T04:17:46.322Z,27.97
2019-01-21T04:20:31.725Z,30.10
2019-01-21T04:23:03.530Z,28.20
2019-01-21T04:25:37.527Z,28.97
2019-01-21T04:28:11.894Z,26.37
2019-01-21T04:30:55.348Z,31.10
2019-01-21T04:33:26.971Z,29.90
2019-01-21T04:36:18.374Z,26.20
2019-01-21T04:39:01.470Z,27.63
2019-01-21T04:41:38.910Z,25.13
2019-01-21T04:44:34.447Z,26.83
2019-01-21T04:47:21.095Z,26.27
2019-01-21T04:49:55.137Z,26.37
2019-01-21T04:52:35.264Z,26.20
2019-01-21T04:55:26.460Z,25.53
2019-01-21T04:58:00.644Z,29.90
2019-01-21T05:00:55.337Z,27.97
2019-01-21T05:03:43.393Z,27.37
2019-01-21T05:06:38.779Z,29.13
2019-01-21T05:09:10.438Z,29.23
2019-01-21T05:11:47.846Z,28.53
2019-01-21T05:14:22.403Z,28.07
2019-01-21T05:16:59.365Z,28.53
2019-01-21T05:19:58.098Z,26.63
2019-01-21T05:22:29.718Z,27.40
2019-01-21T05:25:34.446Z,27.93
2019-01-21T05:28:08.833Z,29.30
2019-01-21T05:30:49.104Z,28.73
2019-01-21T05:33:26.545Z,28.73
2019-01-21T05:36:07.095Z,30.20
2019-01-21T05:38:50.651Z,27.17
2019-01-21T05:41:25.131Z,27.40
2019-01-21T05:44:19.420Z,29.83
2019-01-21T05:47:10.256Z,29.60
2019-01-21T05:49:54.072Z,28.97
2019-01-21T05:52:43.521Z,27.87
2019-01-21T05:55:15.258Z,28.93
2019-01-21T05:57:58.891Z,30.87
2019-01-21T06:00:46.887Z,30.10
2019-01-21T06:03:42.321Z,30.87
2019-01-21T06:06:19.741Z,28.53
2019-01-21T06:09:18.701Z,26.77
2019-01-21T06:12:05.334Z,26.57
2019-01-21T06:14:39.666Z,27.83
2019-01-21T06:17:20.384Z,28.37
2019-01-21T06:19:51.917Z,29.13
2019-01-21T06:22:41.544Z,28.70
2019-01-21T06:25:22.169Z,28.20
2019-01-21T06:27:53.660Z,29.00
2019-01-21T06:30:25.258Z,30.63
2019-01-21T06:33:15.984Z,25.73
2019-01-21T06:35:53.158Z,28.60
2019-01-21T06:38:33.545Z,27.73
2019-01-21T06:41:19.983Z,29.27
2019-01-21T06:44:00.346Z,27.63
2019-01-21T06:46:46.163Z,28.33
2019-01-21T06:49:41.733Z,27.83
2019-01-21T06:52:32.885Z,27.40
2019-01-21T06:55:20.891Z,29.63
2019-01-21T06:58:12.338Z,26.40
2019-01-21T07:00:50.046Z,29.93
2019-01-21T07:03:29.815Z,25.57
2019-01-21T07:06:16.170Z,26.20
2019-01-21T07:09:02.683Z,29.20
2019-01-21T07:11:49.633Z,30.17
2019-01-21T07:14:29.647Z,30.20
2019-01-21T07:17:04.139Z,28.27
2019-01-21T07:19:38.426Z,30.27
2019-01-21T07:22:25.081Z,31.67
2019-01-21T07:25:20.822Z,30.27
2019-01-21T07:28:04.406Z,29.73
2019-01-21T07:30:41.932Z,32.87
2019-01-21T07:33:34.085Z,31.17
2019-01-21T07:36:23.840Z,35.47
2019-01-21T07:39:04.731Z,31.10
2019-01-21T07:41:45.338Z,28.00
2019-01-21T07:44:22.638Z,32.80
2019-01-21T07:46:56.717Z,30.03
2019-01-21T07:49:50.686Z,32.40
2019-01-21T07:52:34.350Z,34.83
2019-01-21T07:55:08.561Z,37.10
2019-01-21T07:57:43.458Z,37.10
2019-01-21T08:00:38.910Z,38.23
2019-01-21T08:03:10.645Z,37.83
2019-01-21T08:05:56.929Z,36.73
2019-01-21T08:08:28.450Z,38.83
2019-01-21T08:11:06.087Z,40.20
2019-01-21T08:13:43.485Z,38.73
2019-01-21T08:16:27.055Z,38.73
2019-01-21T08:18:58.873Z,39.67
2019-01-21T08:22:05.210Z,36.73
2019-01-21T08:24:46.310Z,33.43
2019-01-21T08:27:29.598Z,35.13
2019-01-21T08:30:36.394Z,34.73
2019-01-21T08:33:20.261Z,41.67
2019-01-21T08:35:51.808Z,37.07
2019-01-21T08:38:39.637Z,35.73
2019-01-21T08:41:16.597Z,38.93
2019-01-21T08:43:57.214Z,39.43
2019-01-21T08:46:37.859Z,37.30
2019-01-21T08:49:12.031Z,36.13
2019-01-21T08:51:49.142Z,34.90
2019-01-21T08:54:20.679Z,36.47
2019-01-21T08:56:58.088Z,34.83
2019-01-21T08:59:38.383Z,33.50
2019-01-21T09:02:36.668Z,34.17
2019-01-21T09:05:08.191Z,36.20
2019-01-21T09:07:42.329Z,34.00
2019-01-21T09:10:19.809Z,35.80
2019-01-21T09:13:00.027Z,33.57
2019-01-21T09:15:37.327Z,31.23
2019-01-21T09:18:23.965Z,37.13
2019-01-21T09:21:04.508Z,32.67
2019-01-21T09:23:36.006Z,39.00
2019-01-21T09:26:16.402Z,38.70
2019-01-21T09:28:53.558Z,37.07
2019-01-21T09:31:39.522Z,35.60
2019-01-21T09:34:29.378Z,33.33
2019-01-21T09:37:18.626Z,35.17
2019-01-21T09:40:11.431Z,35.23
2019-01-21T09:42:51.844Z,35.50
2019-01-21T09:45:39.057Z,34.87
2019-01-21T09:48:06.425Z,38.20
2019-01-21T09:50:35.974Z,37.13
2019-01-21T09:53:06.057Z,40.27
2019-01-21T09:55:34.774Z,37.97
2019-01-21T09:58:06.289Z,35.70
2019-01-21T10:00:34.960Z,33.07
2019-01-21T10:03:04.829Z,35.47
2019-01-21T10:05:34.770Z,34.10
2019-01-21T10:08:09.055Z,34.67
2019-01-21T10:10:55.755Z,35.77
2019-01-21T10:13:33.217Z,34.13
2019-01-21T10:16:07.569Z,32.43
2019-01-21T10:18:58.899Z,37.80
2019-01-21T10:21:39.618Z,37.13
2019-01-21T10:24:23.293Z,35.77
2019-01-21T10:27:03.790Z,36.80
2019-01-21T10:29:53.738Z,33.43
2019-01-21T10:32:37.308Z,31.93
2019-01-21T10:35:11.715Z,33.50
2019-01-21T10:38:00.076Z,32.20
2019-01-21T10:40:43.462Z,32.50
2019-01-21T10:43:24.029Z,31.37
2019-01-21T10:46:03.883Z,29.57
2019-01-21T10:48:35.393Z,26.07
2019-01-21T10:51:43.277Z,25.70
2019-01-21T10:54:29.897Z,26.90
2019-01-21T10:57:31.475Z,26.90
2019-01-21T11:00:30.162Z,26.27
2019-01-21T11:03:02.651Z,25.70
2019-01-21T11:05:59.685Z,26.97
2019-01-21T11:08:45.494Z,26.40
2019-01-21T11:11:28.994Z,39.33
2019-01-21T11:14:12.529Z,28.20
2019-01-21T11:16:53.106Z,26.50
2019-01-21T11:19:33.496Z,29.50
2019-01-21T11:22:05.001Z,29.03
2019-01-21T11:24:38.919Z,30.27
2019-01-21T11:27:16.269Z,29.03
2019-01-21T11:29:50.604Z,25.70
2019-01-21T11:32:34.166Z,28.93
2019-01-21T11:35:33.250Z,25.97
2019-01-21T11:38:07.416Z,29.63
2019-01-21T11:40:38.922Z,26.57
2019-01-21T11:43:10.582Z,26.37
2019-01-21T11:45:57.226Z,27.97
2019-01-21T11:48:41.134Z,26.17
2019-01-21T11:51:24.492Z,27.57
2019-01-21T11:54:16.863Z,25.67
2019-01-21T11:57:00.477Z,23.57
2019-01-21T11:59:34.528Z,26.93
2019-01-21T12:02:21.193Z,24.90
2019-01-21T12:04:58.950Z,27.70
2019-01-21T12:07:33.619Z,25.83
2019-01-21T12:10:20.014Z,24.47
2019-01-21T12:13:07.689Z,27.93
2019-01-21T12:15:59.717Z,28.83
2019-01-21T12:18:31.197Z,28.23
2019-01-21T12:21:17.841Z,29.87
2019-01-21T12:23:55.175Z,25.87
2019-01-21T12:26:46.002Z,28.20
2019-01-21T12:29:20.121Z,28.30
2019-01-21T12:32:00.522Z,29.67
2019-01-21T12:34:37.797Z,29.40
2019-01-21T12:37:09.362Z,29.00
2019-01-21T12:39:49.869Z,27.57
2019-01-21T12:42:36.377Z,28.10
2019-01-21T12:45:10.766Z,28.47
2019-01-21T12:47:48.225Z,26.50
2019-01-21T12:50:37.970Z,23.63
2019-01-21T12:53:27.433Z,26.33
2019-01-21T12:56:04.509Z,27.17
2019-01-21T12:58:36.009Z,29.63
2019-01-21T13:01:13.333Z,27.77
2019-01-21T13:04:00.146Z,23.87
2019-01-21T13:06:58.770Z,29.93
2019-01-21T13:09:45.478Z,27.97
2019-01-21T13:12:45.905Z,25.90
2019-01-21T13:15:23.206Z,28.40
2019-01-21T13:18:00.505Z,25.53
2019-01-21T13:20:34.791Z,29.37
2019-01-21T13:23:06.345Z,26.00
2019-01-21T13:25:53.146Z,26.50
2019-01-21T13:28:31.457Z,25.27
2019-01-21T13:31:19.950Z,24.27
2019-01-21T13:34:00.283Z,29.87
2019-01-21T13:36:51.574Z,25.30
2019-01-21T13:39:47.310Z,26.50
2019-01-21T13:42:18.818Z,23.73
2019-01-21T13:44:58.621Z,23.73
2019-01-21T13:47:35.989Z,21.93
2019-01-21T13:50:25.454Z,24.63
2019-01-21T13:53:13.420Z,23.47
2019-01-21T13:55:54.087Z,22.93
2019-01-21T13:58:28.706Z,23.77
2019-01-21T14:01:18.267Z,21.87
2019-01-21T14:04:07.681Z,22.83
2019-01-21T14:06:48.208Z,22.40
2019-01-21T14:09:35.059Z,21.30
2019-01-21T14:12:21.293Z,28.47
2019-01-21T14:15:09.171Z,21.67
2019-01-21T14:17:55.711Z,22.47
2019-01-21T14:20:30.171Z,22.20
2019-01-21T14:23:07.381Z,23.10
2019-01-21T14:25:54.098Z,22.83
2019-01-21T14:28:43.076Z,20.40
2019-01-21T14:31:33.069Z,20.23
2019-01-21T14:34:16.629Z,20.77
2019-01-21T14:37:03.226Z,19.17
2019-01-21T14:39:43.937Z,20.73
2019-01-21T14:42:35.105Z,20.97
2019-01-21T14:45:15.403Z,18.07
2019-01-21T14:47:46.945Z,21.70
2019-01-21T14:50:37.972Z,21.73
2019-01-21T14:53:21.231Z,20.80
2019-01-21T14:55:58.665Z,19.83
2019-01-21T14:58:32.945Z,21.47
2019-01-21T15:01:07.784Z,22.50
2019-01-21T15:03:51.317Z,21.70
2019-01-21T15:06:41.214Z,21.27
2019-01-21T15:09:19.078Z,22.47
2019-01-21T15:11:53.307Z,21.97
2019-01-21T15:14:43.217Z,21.97
2019-01-21T15:17:21.595Z,20.80
2019-01-21T15:19:51.289Z,22.07
2019-01-21T15:22:22.961Z,22.23
2019-01-21T15:25:12.520Z,21.50
2019-01-21T15:27:59.549Z,21.13
2019-01-21T15:30:37.254Z,22.10
2019-01-21T15:33:15.937Z,21.37
2019-01-21T15:35:59.916Z,23.80
2019-01-21T15:38:48.245Z,22.73
2019-01-21T15:41:31.785Z,20.07
2019-01-21T15:44:15.335Z,20.20
2019-01-21T15:46:52.655Z,21.00
2019-01-21T15:49:29.966Z,20.40
2019-01-21T15:52:04.120Z,19.53
2019-01-21T15:54:35.642Z,19.70
2019-01-21T15:57:19.375Z,18.87
2019-01-21T16:00:10.210Z,19.47
2019-01-21T16:02:44.623Z,21.00
2019-01-21T16:05:28.142Z,21.23
2019-01-21T16:07:59.700Z,21.50
2019-01-21T16:10:52.080Z,24.20
2019-01-21T16:13:25.258Z,24.77
2019-01-21T16:16:11.752Z,27.30
2019-01-21T16:18:52.390Z,24.53
2019-01-21T16:21:57.602Z,26.87
2019-01-21T16:24:44.144Z,24.47
2019-01-21T16:27:21.279Z,24.70
2019-01-21T16:29:55.466Z,24.93
2019-01-21T16:32:25.331Z,27.33
2019-01-21T16:34:59.236Z,25.53
2019-01-21T16:37:42.767Z,35.30
2019-01-21T16:40:23.367Z,25.47
2019-01-21T16:42:51.803Z,27.17
2019-01-21T16:45:20.226Z,25.50
2019-01-21T16:47:48.740Z,27.07
2019-01-21T16:50:17.421Z,25.67
2019-01-21T16:52:45.884Z,25.27
2019-01-21T16:55:14.343Z,27.00
2019-01-21T16:57:42.754Z,25.40
2019-01-21T17:00:14.522Z,27.33
2019-01-21T17:02:42.946Z,27.00
2019-01-21T17:05:12.928Z,28.30
2019-01-21T17:07:41.387Z,29.13
2019-01-21T17:10:11.889Z,30.10
2019-01-21T17:12:40.353Z,28.40
2019-01-21T17:15:11.490Z,27.93
2019-01-21T17:17:40.115Z,29.37
2019-01-21T17:20:14.338Z,28.73
2019-01-21T17:22:42.713Z,29.03
2019-01-21T17:25:11.654Z,30.37
2019-01-21T17:27:40.150Z,30.43
2019-01-21T17:30:11.634Z,27.70
2019-01-21T17:32:40.038Z,29.33
2019-01-21T17:35:10.537Z,31.07
2019-01-21T17:37:38.995Z,29.20
2019-01-21T17:40:13.777Z,29.52
2019-01-21T17:42:42.186Z,34.23
2019-01-21T17:45:13.690Z,31.63
2019-01-21T17:47:42.233Z,33.90
2019-01-21T17:50:13.082Z,35.07
2019-01-21T17:52:41.537Z,34.77
2019-01-21T17:55:11.186Z,35.07
2019-01-21T17:57:39.597Z,33.93
2019-01-21T18:00:11.395Z,37.00
2019-01-21T18:02:39.811Z,35.10
2019-01-21T18:05:08.346Z,33.67
2019-01-21T18:07:36.782Z,37.10
2019-01-21T18:10:08.315Z,36.27
2019-01-21T18:12:36.728Z,34.67
2019-01-21T18:15:08.310Z,37.90
2019-01-21T18:17:36.714Z,38.17
2019-01-21T18:20:14.397Z,36.23
2019-01-21T18:22:42.859Z,35.27
2019-01-21T18:25:12.506Z,35.60
2019-01-21T18:27:40.963Z,36.13
2019-01-21T18:30:18.398Z,36.60
2019-01-21T18:32:46.875Z,35.50
2019-01-21T18:35:15.856Z,38.97
2019-01-21T18:37:44.406Z,40.03
2019-01-21T18:40:15.801Z,41.20
2019-01-21T18:42:44.751Z,43.00
2019-01-21T18:45:16.624Z,40.30
2019-01-21T18:47:45.087Z,41.80
2019-01-21T18:50:13.707Z,41.83
2019-01-21T18:52:42.386Z,41.20
2019-01-21T18:55:10.808Z,41.30
2019-01-21T18:57:39.305Z,44.30
2019-01-21T19:00:13.771Z,41.80
2019-01-21T19:02:43.363Z,44.00
2019-01-21T19:05:12.111Z,41.83
2019-01-21T19:07:40.585Z,38.97
2019-01-21T19:10:11.679Z,42.23
2019-01-21T19:12:40.092Z,38.93
2019-01-21T19:15:14.811Z,41.93
2019-01-21T19:17:43.243Z,47.13
2019-01-21T19:20:13.996Z,43.77
2019-01-21T19:22:42.451Z,40.80
2019-01-21T19:25:11.709Z,42.23
2019-01-21T19:27:40.488Z,42.50
2019-01-21T19:30:12.155Z,42.60
2019-01-21T19:32:40.572Z,38.10
2019-01-21T19:35:15.333Z,39.90
2019-01-21T19:37:43.969Z,39.73
2019-01-21T19:40:15.593Z,39.77
2019-01-21T19:42:44.016Z,42.83
2019-01-21T19:45:13.092Z,42.43
2019-01-21T19:47:41.762Z,43.33
2019-01-21T19:50:13.488Z,40.33
2019-01-21T19:52:41.903Z,41.07
2019-01-21T19:55:19.361Z,44.00
2019-01-21T19:57:48.018Z,39.60
2019-01-21T20:00:21.495Z,43.73
2019-01-21T20:02:49.929Z,41.90
2019-01-21T20:05:18.674Z,43.43
2019-01-21T20:07:47.081Z,45.80
2019-01-21T20:10:18.444Z,42.43
2019-01-21T20:12:47.187Z,44.87
2019-01-21T20:15:17.434Z,41.83
2019-01-21T20:17:45.850Z,45.03
2019-01-21T20:20:20.212Z,43.20
2019-01-21T20:22:48.677Z,46.63
2019-01-21T20:25:17.081Z,42.83
2019-01-21T20:27:45.533Z,44.10
2019-01-21T20:30:16.861Z,43.63
2019-01-21T20:32:45.277Z,40.10
2019-01-21T20:35:14.753Z,40.67
2019-01-21T20:37:43.166Z,40.43
2019-01-21T20:40:21.197Z,43.50
2019-01-21T20:42:49.606Z,43.37
2019-01-21T20:45:18.286Z,43.50
2019-01-21T20:47:46.974Z,43.87
2019-01-21T20:50:18.395Z,41.83
2019-01-21T20:52:46.838Z,45.70
2019-01-21T20:55:16.026Z,42.53
2019-01-21T20:57:44.434Z,41.07
2019-01-21T21:00:18.991Z,48.53
2019-01-21T21:02:47.482Z,44.70
2019-01-21T21:05:16.218Z,41.53
2019-01-21T21:07:44.990Z,45.83
2019-01-21T21:10:13.663Z,41.30
2019-01-21T21:12:42.073Z,42.53
2019-01-21T21:15:16.378Z,43.87
2019-01-21T21:17:44.782Z,44.07
2019-01-21T21:20:13.881Z,44.07
2019-01-21T21:22:42.350Z,44.93
2019-01-21T21:25:13.865Z,40.47
2019-01-21T21:27:42.271Z,40.60
2019-01-21T21:30:22.683Z,44.77
2019-01-21T21:32:51.096Z,44.17
2019-01-21T21:35:19.977Z,44.77
2019-01-21T21:37:48.422Z,43.37
2019-01-21T21:40:19.174Z,40.43
2019-01-21T21:42:47.654Z,44.33
2019-01-21T21:45:20.887Z,44.37
2019-01-21T21:47:49.985Z,41.80
2019-01-21T21:50:27.154Z,43.03
2019-01-21T21:52:55.567Z,42.73
2019-01-21T21:55:23.982Z,42.03
2019-01-21T21:57:52.564Z,46.40
2019-01-21T22:00:26.594Z,41.63
2019-01-21T22:02:54.998Z,45.30
2019-01-21T22:05:24.103Z,42.90
2019-01-21T22:07:52.515Z,44.67
2019-01-21T22:10:25.677Z,43.03
2019-01-21T22:12:54.141Z,49.00
2019-01-21T22:15:24.000Z,45.93
2019-01-21T22:17:52.434Z,44.30
2019-01-21T22:20:22.697Z,43.63
2019-01-21T22:22:51.166Z,45.33
2019-01-21T22:25:19.994Z,47.70
2019-01-21T22:27:48.393Z,46.57
2019-01-21T22:30:19.154Z,46.37
2019-01-21T22:32:47.562Z,49.20
2019-01-21T22:35:16.010Z,49.30
2019-01-21T22:37:44.906Z,46.67
2019-01-21T22:40:19.166Z,51.20
2019-01-21T22:42:47.611Z,49.23
2019-01-21T22:45:17.563Z,49.40
2019-01-21T22:47:45.978Z,53.90
2019-01-21T22:50:15.740Z,47.77
2019-01-21T22:52:44.150Z,46.50
2019-01-21T22:55:14.211Z,49.70
2019-01-21T22:57:42.651Z,46.37
2019-01-21T23:00:33.227Z,48.83
2019-01-21T23:03:01.989Z,45.90
2019-01-21T23:05:30.408Z,48.90
2019-01-21T23:07:58.893Z,45.83
2019-01-21T23:10:27.387Z,45.87
2019-01-21T23:12:56.236Z,48.20
2019-01-21T23:15:24.650Z,49.83
2019-01-21T23:17:53.160Z,47.43
2019-01-21T23:20:21.577Z,51.27
2019-01-21T23:22:49.995Z,51.90
2019-01-21T23:25:18.442Z,50.30
2019-01-21T23:27:46.860Z,53.17
2019-01-21T23:30:24.495Z,53.87
2019-01-21T23:32:52.908Z,53.07
2019-01-21T23:35:21.587Z,52.63
2019-01-21T23:37:50.403Z,57.73
2019-01-21T23:40:18.845Z,50.53
2019-01-21T23:42:47.262Z,50.63
2019-01-21T23:45:15.691Z,48.60
2019-01-21T23:47:44.201Z,51.33
2019-01-21T23:50:16.943Z,50.30
2019-01-21T23:52:45.430Z,49.90
2019-01-21T23:55:14.311Z,52.57
2019-01-21T23:57:42.815Z,49.07
